BCC981 LEPA-LIMJ
Flight info
| Callsign | BCC981 |
|---|---|
| Flight time | 0h 55m |
| Altitude | 34000 |
| Route | ISTER DCT NIVDA DCT OMEDA DCT RAPUR/N0469F300 DCT TORTU DCT ERTEV DCT OLETI DCT UNITA |
| Aircraft | A320/M-SDE3FGHIRWY/LB1 |
Departure
| Time | 2026-04-20 18:58 |
|---|---|
| Airport | Palma de Mallorca Airport (LEPA) |
Arrival
| Time | 2026-04-20 19:54 |
|---|---|
| Airport | Genoa Cristoforo Colombo Airport (LIMJ) |
| Time | Latitude | Longitude | Altitude | Speed | Heading |
|---|---|---|---|---|---|
| 2026-04-20 18:11 | 39.54539 | 2.73276 | 36 ft | 0 kts | 345° |
| 2026-04-20 18:43 | 39.54532 | 2.73279 | 18 ft | 4 kts | 345° |
| 2026-04-20 18:44 | 39.54511 | 2.73286 | 38 ft | 4 kts | 352° |
| 2026-04-20 18:44 | 39.54485 | 2.73284 | 35 ft | 4 kts | 28° |
| 2026-04-20 18:44 | 39.54466 | 2.73263 | 37 ft | 2 kts | 58° |
| 2026-04-20 18:44 | 39.54464 | 2.73258 | 38 ft | 0 kts | 58° |
| 2026-04-20 18:50 | 39.54466 | 2.73262 | 37 ft | 2 kts | 58° |
| 2026-04-20 18:50 | 39.54471 | 2.73273 | 36 ft | 5 kts | 58° |
| 2026-04-20 18:50 | 39.54500 | 2.73334 | 36 ft | 9 kts | 58° |
| 2026-04-20 18:51 | 39.54538 | 2.73416 | 38 ft | 12 kts | 58° |
| 2026-04-20 18:51 | 39.54585 | 2.73512 | 38 ft | 14 kts | 54° |
| 2026-04-20 18:51 | 39.54643 | 2.73623 | 37 ft | 16 kts | 63° |
| 2026-04-20 18:51 | 39.54700 | 2.73758 | 38 ft | 18 kts | 58° |
| 2026-04-20 18:52 | 39.54768 | 2.73901 | 38 ft | 19 kts | 57° |
| 2026-04-20 18:52 | 39.54839 | 2.73994 | 38 ft | 14 kts | 2° |
| 2026-04-20 18:52 | 39.54926 | 2.73963 | 38 ft | 12 kts | 21° |
| 2026-04-20 18:52 | 39.55004 | 2.73986 | 36 ft | 14 kts | 329° |
| 2026-04-20 18:53 | 39.55094 | 2.73915 | 38 ft | 16 kts | 328° |
| 2026-04-20 18:53 | 39.55200 | 2.73831 | 37 ft | 19 kts | 328° |
| 2026-04-20 18:53 | 39.55320 | 2.73733 | 38 ft | 22 kts | 327° |
| 2026-04-20 18:53 | 39.55456 | 2.73628 | 38 ft | 24 kts | 329° |
| 2026-04-20 18:54 | 39.55591 | 2.73520 | 38 ft | 17 kts | 328° |
| 2026-04-20 18:54 | 39.55689 | 2.73569 | 38 ft | 18 kts | 58° |
| 2026-04-20 18:54 | 39.55758 | 2.73717 | 38 ft | 20 kts | 59° |
| 2026-04-20 18:54 | 39.55836 | 2.73883 | 38 ft | 23 kts | 58° |
| 2026-04-20 18:55 | 39.55924 | 2.74069 | 38 ft | 25 kts | 59° |
| 2026-04-20 18:55 | 39.56003 | 2.74234 | 38 ft | 19 kts | 48° |
| 2026-04-20 18:55 | 39.56122 | 2.74324 | 38 ft | 18 kts | 27° |
| 2026-04-20 18:55 | 39.56217 | 2.74323 | 37 ft | 14 kts | 311° |
| 2026-04-20 18:56 | 39.56214 | 2.74238 | 36 ft | 0 kts | 237° |
| 2026-04-20 18:57 | 39.56211 | 2.74231 | 37 ft | 3 kts | 237° |
| 2026-04-20 18:57 | 39.56168 | 2.74144 | 38 ft | 23 kts | 238° |
| 2026-04-20 18:58 | 39.55960 | 2.73712 | 38 ft | 90 kts | 238° |
| 2026-04-20 18:58 | 39.55536 | 2.72805 | 38 ft | 143 kts | 238° |
| 2026-04-20 18:58 | 39.54982 | 2.71608 | 389 ft | 156 kts | 239° |
| 2026-04-20 18:58 | 39.54423 | 2.70391 | 1064 ft | 158 kts | 237° |
| 2026-04-20 18:59 | 39.53849 | 2.69176 | 1746 ft | 158 kts | 237° |
| 2026-04-20 18:59 | 39.53273 | 2.67968 | 2318 ft | 158 kts | 237° |
| 2026-04-20 18:59 | 39.52694 | 2.66754 | 2840 ft | 158 kts | 237° |
| 2026-04-20 18:59 | 39.52111 | 2.65529 | 3321 ft | 164 kts | 237° |
| 2026-04-20 19:00 | 39.51480 | 2.64205 | 3571 ft | 186 kts | 237° |
| 2026-04-20 19:00 | 39.50757 | 2.62690 | 3838 ft | 210 kts | 237° |
| 2026-04-20 19:00 | 39.49896 | 2.61067 | 4317 ft | 224 kts | 225° |
| 2026-04-20 19:00 | 39.48549 | 2.59875 | 4720 ft | 248 kts | 206° |
| 2026-04-20 19:01 | 39.46930 | 2.58841 | 5238 ft | 267 kts | 206° |
| 2026-04-20 19:01 | 39.45234 | 2.57774 | 6054 ft | 274 kts | 206° |
| 2026-04-20 19:01 | 39.43472 | 2.56795 | 6881 ft | 279 kts | 193° |
| 2026-04-20 19:01 | 39.41535 | 2.56890 | 7661 ft | 285 kts | 160° |
| 2026-04-20 19:02 | 39.39864 | 2.58284 | 8485 ft | 290 kts | 136° |
| 2026-04-20 19:02 | 39.38445 | 2.60150 | 9330 ft | 293 kts | 138° |
| 2026-04-20 19:02 | 39.36924 | 2.61932 | 10134 ft | 297 kts | 135° |
| 2026-04-20 19:02 | 39.35474 | 2.63928 | 10566 ft | 315 kts | 134° |
| 2026-04-20 19:03 | 39.33871 | 2.66005 | 10769 ft | 338 kts | 136° |
| 2026-04-20 19:03 | 39.32098 | 2.68161 | 10922 ft | 361 kts | 138° |
| 2026-04-20 19:03 | 39.30209 | 2.70405 | 11287 ft | 375 kts | 138° |
| 2026-04-20 19:03 | 39.28313 | 2.72753 | 11874 ft | 381 kts | 131° |
| 2026-04-20 19:04 | 39.27019 | 2.75749 | 12487 ft | 388 kts | 106° |
| 2026-04-20 19:04 | 39.26638 | 2.79209 | 13111 ft | 393 kts | 93° |
| 2026-04-20 19:04 | 39.26556 | 2.82758 | 13733 ft | 398 kts | 90° |
| 2026-04-20 19:04 | 39.26697 | 2.86339 | 14271 ft | 402 kts | 80° |
| 2026-04-20 19:05 | 39.27377 | 2.89855 | 14824 ft | 405 kts | 70° |
| 2026-04-20 19:05 | 39.28466 | 2.93223 | 15361 ft | 408 kts | 62° |
| 2026-04-20 19:05 | 39.29855 | 2.96434 | 15930 ft | 412 kts | 58° |
| 2026-04-20 19:05 | 39.31278 | 2.99666 | 16503 ft | 416 kts | 58° |
| 2026-04-20 19:06 | 39.32709 | 3.02935 | 17093 ft | 420 kts | 58° |
| 2026-04-20 19:06 | 39.34155 | 3.06240 | 17686 ft | 425 kts | 58° |
| 2026-04-20 19:06 | 39.35123 | 3.08444 | 18077 ft | 428 kts | 58° |
| 2026-04-20 19:06 | 39.36603 | 3.11803 | 18612 ft | 432 kts | 58° |
| 2026-04-20 19:07 | 39.38099 | 3.15191 | 19149 ft | 435 kts | 58° |
| 2026-04-20 19:07 | 39.39609 | 3.18603 | 19707 ft | 438 kts | 58° |
| 2026-04-20 19:07 | 39.41129 | 3.22040 | 20271 ft | 440 kts | 58° |
| 2026-04-20 19:07 | 39.42653 | 3.25487 | 20800 ft | 442 kts | 58° |
| 2026-04-20 19:08 | 39.44196 | 3.28941 | 21305 ft | 445 kts | 57° |
| 2026-04-20 19:08 | 39.47382 | 3.35856 | 22237 ft | 449 kts | 57° |
| 2026-04-20 19:08 | 39.48995 | 3.39324 | 22676 ft | 451 kts | 57° |
| 2026-04-20 19:09 | 39.50619 | 3.42815 | 23107 ft | 453 kts | 57° |
| 2026-04-20 19:09 | 39.52224 | 3.46281 | 23525 ft | 455 kts | 57° |
| 2026-04-20 19:09 | 39.53851 | 3.49814 | 23869 ft | 458 kts | 57° |
| 2026-04-20 19:09 | 39.55482 | 3.53367 | 24200 ft | 460 kts | 57° |
| 2026-04-20 19:10 | 39.57121 | 3.56950 | 24520 ft | 463 kts | 57° |
| 2026-04-20 19:10 | 39.58760 | 3.60548 | 24842 ft | 465 kts | 57° |
| 2026-04-20 19:10 | 39.60409 | 3.64171 | 25157 ft | 468 kts | 57° |
| 2026-04-20 19:10 | 39.62067 | 3.67818 | 25487 ft | 470 kts | 57° |
| 2026-04-20 19:11 | 39.63732 | 3.71479 | 25797 ft | 473 kts | 57° |
| 2026-04-20 19:11 | 39.65407 | 3.75163 | 26114 ft | 475 kts | 57° |
| 2026-04-20 19:11 | 39.67089 | 3.78862 | 26427 ft | 477 kts | 57° |
| 2026-04-20 19:11 | 39.68776 | 3.82583 | 26739 ft | 479 kts | 57° |
| 2026-04-20 19:12 | 39.70472 | 3.86323 | 27034 ft | 482 kts | 57° |
| 2026-04-20 19:12 | 39.72177 | 3.90085 | 27391 ft | 482 kts | 56° |
| 2026-04-20 19:12 | 39.74851 | 3.95994 | 28085 ft | 481 kts | 56° |
| 2026-04-20 19:12 | 39.78229 | 4.03496 | 29000 ft | 479 kts | 56° |
| 2026-04-20 19:13 | 39.81583 | 4.10962 | 29919 ft | 478 kts | 56° |
| 2026-04-20 19:13 | 39.84926 | 4.18427 | 30735 ft | 476 kts | 56° |
| 2026-04-20 19:13 | 39.88257 | 4.25867 | 31539 ft | 475 kts | 56° |
| 2026-04-20 19:13 | 39.91591 | 4.33278 | 32353 ft | 474 kts | 56° |
| 2026-04-20 19:14 | 39.94918 | 4.40690 | 33165 ft | 473 kts | 56° |
| 2026-04-20 19:14 | 39.96668 | 4.44604 | 33600 ft | 472 kts | 56° |
| 2026-04-20 19:14 | 39.98317 | 4.48304 | 33930 ft | 473 kts | 56° |
| 2026-04-20 19:15 | 40.01640 | 4.55784 | 34002 ft | 480 kts | 56° |
| 2026-04-20 19:15 | 40.04985 | 4.63330 | 34000 ft | 481 kts | 56° |
| 2026-04-20 19:16 | 40.08832 | 4.70385 | 33998 ft | 475 kts | 46° |
| 2026-04-20 19:16 | 40.13046 | 4.76971 | 33997 ft | 476 kts | 46° |
| 2026-04-20 19:17 | 40.17280 | 4.83619 | 34002 ft | 476 kts | 46° |
| 2026-04-20 19:17 | 40.21504 | 4.90284 | 34007 ft | 476 kts | 46° |
| 2026-04-20 19:18 | 40.25727 | 4.96957 | 34008 ft | 476 kts | 46° |
| 2026-04-20 19:18 | 40.29953 | 5.03632 | 34016 ft | 476 kts | 46° |
| 2026-04-20 19:19 | 40.34170 | 5.10311 | 34017 ft | 475 kts | 46° |
| 2026-04-20 19:19 | 40.48428 | 5.33027 | 34012 ft | 475 kts | 47° |
| 2026-04-20 19:20 | 40.65153 | 5.59889 | 34013 ft | 474 kts | 47° |
| 2026-04-20 19:20 | 40.81805 | 5.86863 | 34009 ft | 474 kts | 47° |
| 2026-04-20 19:21 | 40.98412 | 6.13997 | 33996 ft | 474 kts | 47° |
| 2026-04-20 19:21 | 41.14930 | 6.41233 | 33993 ft | 474 kts | 48° |
| 2026-04-20 19:22 | 41.31538 | 6.68493 | 33989 ft | 474 kts | 46° |
| 2026-04-20 19:22 | 41.48216 | 6.95400 | 33985 ft | 474 kts | 47° |
| 2026-04-20 19:23 | 41.64899 | 7.22626 | 33983 ft | 474 kts | 47° |
| 2026-04-20 19:23 | 41.81541 | 7.49984 | 33980 ft | 473 kts | 47° |
| 2026-04-20 19:24 | 41.98097 | 7.77559 | 33977 ft | 473 kts | 46° |
| 2026-04-20 19:24 | 42.14622 | 8.05210 | 33961 ft | 475 kts | 46° |
| 2026-04-20 19:25 | 42.30046 | 8.31288 | 33944 ft | 475 kts | 43° |
| 2026-04-20 19:25 | 42.34980 | 8.36889 | 33941 ft | 461 kts | 25° |
| 2026-04-20 19:26 | 42.40727 | 8.40509 | 33934 ft | 454 kts | 16° |
| 2026-04-20 19:26 | 42.46574 | 8.43757 | 33927 ft | 454 kts | 16° |
| 2026-04-20 19:27 | 42.52424 | 8.47022 | 33928 ft | 455 kts | 16° |
| 2026-04-20 19:27 | 42.58285 | 8.50290 | 33923 ft | 455 kts | 16° |
| 2026-04-20 19:28 | 42.64149 | 8.53555 | 33927 ft | 456 kts | 16° |
| 2026-04-20 19:28 | 42.70019 | 8.56835 | 33928 ft | 456 kts | 16° |
| 2026-04-20 19:29 | 42.75892 | 8.60130 | 33933 ft | 457 kts | 16° |
| 2026-04-20 19:29 | 42.81727 | 8.63412 | 33942 ft | 457 kts | 16° |
| 2026-04-20 19:30 | 42.87609 | 8.66727 | 33948 ft | 457 kts | 16° |
| 2026-04-20 19:30 | 42.93480 | 8.70036 | 33199 ft | 456 kts | 16° |
| 2026-04-20 19:30 | 42.96417 | 8.71693 | 32287 ft | 458 kts | 17° |
| 2026-04-20 19:31 | 42.99372 | 8.73361 | 31376 ft | 460 kts | 17° |
| 2026-04-20 19:31 | 43.02378 | 8.74837 | 30470 ft | 456 kts | 8° |
| 2026-04-20 19:31 | 43.05468 | 8.75774 | 29459 ft | 457 kts | 7° |
| 2026-04-20 19:31 | 43.08582 | 8.76701 | 28309 ft | 459 kts | 7° |
| 2026-04-20 19:32 | 43.11719 | 8.77630 | 27135 ft | 462 kts | 7° |
| 2026-04-20 19:32 | 43.14864 | 8.78559 | 26198 ft | 461 kts | 7° |
| 2026-04-20 19:32 | 43.17978 | 8.79484 | 25437 ft | 455 kts | 7° |
| 2026-04-20 19:32 | 43.21062 | 8.80407 | 24655 ft | 451 kts | 7° |
| 2026-04-20 19:33 | 43.24111 | 8.81321 | 23925 ft | 446 kts | 7° |
| 2026-04-20 19:33 | 43.27091 | 8.82212 | 23167 ft | 442 kts | 7° |
| 2026-04-20 19:33 | 43.30082 | 8.83103 | 22364 ft | 438 kts | 7° |
| 2026-04-20 19:33 | 43.33040 | 8.83985 | 21607 ft | 432 kts | 8° |
| 2026-04-20 19:34 | 43.35962 | 8.84859 | 20876 ft | 427 kts | 8° |
| 2026-04-20 19:34 | 43.38847 | 8.85723 | 20161 ft | 422 kts | 8° |
| 2026-04-20 19:34 | 43.41706 | 8.86580 | 19475 ft | 417 kts | 8° |
| 2026-04-20 19:34 | 43.44528 | 8.87425 | 18822 ft | 413 kts | 8° |
| 2026-04-20 19:35 | 43.47326 | 8.88262 | 18197 ft | 409 kts | 8° |
| 2026-04-20 19:35 | 43.50099 | 8.89090 | 17504 ft | 406 kts | 8° |
| 2026-04-20 19:35 | 43.52846 | 8.89911 | 16851 ft | 403 kts | 8° |
| 2026-04-20 19:35 | 43.55574 | 8.90728 | 16237 ft | 400 kts | 8° |
| 2026-04-20 19:36 | 43.58282 | 8.91540 | 15626 ft | 397 kts | 8° |
| 2026-04-20 19:36 | 43.60969 | 8.92351 | 15008 ft | 394 kts | 9° |
| 2026-04-20 19:36 | 43.63636 | 8.93157 | 14387 ft | 391 kts | 9° |
| 2026-04-20 19:36 | 43.66283 | 8.93960 | 13760 ft | 388 kts | 9° |
| 2026-04-20 19:37 | 43.68911 | 8.94756 | 13070 ft | 385 kts | 9° |
| 2026-04-20 19:37 | 43.71518 | 8.95542 | 12368 ft | 382 kts | 9° |
| 2026-04-20 19:37 | 43.74104 | 8.96322 | 11684 ft | 378 kts | 9° |
| 2026-04-20 19:37 | 43.76637 | 8.97092 | 11427 ft | 364 kts | 9° |
| 2026-04-20 19:38 | 43.79052 | 8.97830 | 11300 ft | 347 kts | 9° |
| 2026-04-20 19:38 | 43.81362 | 8.98536 | 11174 ft | 333 kts | 9° |
| 2026-04-20 19:38 | 43.83577 | 8.99210 | 11051 ft | 320 kts | 9° |
| 2026-04-20 19:38 | 43.85715 | 8.99859 | 10926 ft | 309 kts | 9° |
| 2026-04-20 19:39 | 43.87778 | 9.00487 | 10793 ft | 299 kts | 9° |
| 2026-04-20 19:39 | 43.89791 | 9.01098 | 10527 ft | 295 kts | 9° |
| 2026-04-20 19:39 | 43.91750 | 9.01774 | 10207 ft | 294 kts | 15° |
| 2026-04-20 19:39 | 43.93651 | 9.02830 | 9890 ft | 295 kts | 24° |
| 2026-04-20 19:40 | 43.95419 | 9.04268 | 9546 ft | 295 kts | 32° |
| 2026-04-20 19:40 | 43.97019 | 9.06062 | 9207 ft | 296 kts | 41° |
| 2026-04-20 19:40 | 43.98479 | 9.08079 | 8851 ft | 295 kts | 43° |
| 2026-04-20 19:40 | 43.99932 | 9.10088 | 8495 ft | 294 kts | 42° |
| 2026-04-20 19:41 | 44.01392 | 9.12084 | 8149 ft | 293 kts | 42° |
| 2026-04-20 19:41 | 44.02846 | 9.14061 | 7814 ft | 292 kts | 42° |
| 2026-04-20 19:41 | 44.03336 | 9.14729 | 7714 ft | 292 kts | 42° |
| 2026-04-20 19:41 | 44.04557 | 9.16384 | 7501 ft | 287 kts | 42° |
| 2026-04-20 19:42 | 44.05953 | 9.18305 | 7384 ft | 278 kts | 43° |
| 2026-04-20 19:42 | 44.07304 | 9.20178 | 7244 ft | 270 kts | 43° |
| 2026-04-20 19:42 | 44.08651 | 9.21948 | 7115 ft | 261 kts | 33° |
| 2026-04-20 19:42 | 44.10248 | 9.22968 | 6940 ft | 249 kts | 8° |
| 2026-04-20 19:43 | 44.11932 | 9.22995 | 6732 ft | 238 kts | 344° |
| 2026-04-20 19:43 | 44.13416 | 9.22171 | 6611 ft | 224 kts | 323° |
| 2026-04-20 19:43 | 44.14550 | 9.20791 | 6480 ft | 213 kts | 312° |
| 2026-04-20 19:43 | 44.15575 | 9.19358 | 6382 ft | 204 kts | 312° |
| 2026-04-20 19:44 | 44.16569 | 9.17979 | 6062 ft | 201 kts | 313° |
| 2026-04-20 19:44 | 44.17562 | 9.16603 | 5728 ft | 200 kts | 313° |
| 2026-04-20 19:44 | 44.18675 | 9.15549 | 5598 ft | 191 kts | 338° |
| 2026-04-20 19:44 | 44.19971 | 9.15311 | 5401 ft | 189 kts | 5° |
| 2026-04-20 19:45 | 44.21202 | 9.15916 | 5121 ft | 190 kts | 33° |
| 2026-04-20 19:45 | 44.22234 | 9.17056 | 4850 ft | 189 kts | 38° |
| 2026-04-20 19:45 | 44.23265 | 9.18147 | 4695 ft | 181 kts | 36° |
| 2026-04-20 19:45 | 44.24285 | 9.19143 | 4485 ft | 178 kts | 33° |
| 2026-04-20 19:46 | 44.25325 | 9.20069 | 4245 ft | 177 kts | 32° |
| 2026-04-20 19:46 | 44.26367 | 9.20927 | 4062 ft | 175 kts | 30° |
| 2026-04-20 19:46 | 44.27444 | 9.21737 | 4012 ft | 176 kts | 27° |
| 2026-04-20 19:46 | 44.28546 | 9.22485 | 4008 ft | 176 kts | 23° |
| 2026-04-20 19:47 | 44.29737 | 9.22854 | 4016 ft | 177 kts | 1° |
| 2026-04-20 19:47 | 44.30946 | 9.22608 | 4012 ft | 176 kts | 340° |
| 2026-04-20 19:47 | 44.32005 | 9.21777 | 4013 ft | 175 kts | 318° |
| 2026-04-20 19:47 | 44.32772 | 9.20481 | 4009 ft | 173 kts | 296° |
| 2026-04-20 19:48 | 44.33201 | 9.18909 | 4009 ft | 173 kts | 287° |
| 2026-04-20 19:48 | 44.33591 | 9.17321 | 4010 ft | 173 kts | 287° |
| 2026-04-20 19:48 | 44.33968 | 9.15734 | 3926 ft | 170 kts | 286° |
| 2026-04-20 19:48 | 44.34330 | 9.14184 | 3576 ft | 171 kts | 286° |
| 2026-04-20 19:49 | 44.34697 | 9.12603 | 3330 ft | 171 kts | 286° |
| 2026-04-20 19:49 | 44.35055 | 9.11057 | 3150 ft | 163 kts | 286° |
| 2026-04-20 19:49 | 44.35398 | 9.09574 | 2975 ft | 158 kts | 286° |
| 2026-04-20 19:49 | 44.35734 | 9.08120 | 2904 ft | 157 kts | 285° |
| 2026-04-20 19:50 | 44.36068 | 9.06669 | 2823 ft | 156 kts | 285° |
| 2026-04-20 19:50 | 44.36402 | 9.05224 | 2751 ft | 156 kts | 285° |
| 2026-04-20 19:50 | 44.36622 | 9.04268 | 2706 ft | 156 kts | 286° |
| 2026-04-20 19:50 | 44.36955 | 9.02819 | 2617 ft | 157 kts | 286° |
| 2026-04-20 19:51 | 44.37288 | 9.01375 | 2440 ft | 156 kts | 286° |
| 2026-04-20 19:51 | 44.37619 | 8.99933 | 2236 ft | 156 kts | 286° |
| 2026-04-20 19:51 | 44.37951 | 8.98494 | 2024 ft | 156 kts | 287° |
| 2026-04-20 19:51 | 44.38571 | 8.96683 | 1671 ft | 155 kts | 295° |
| 2026-04-20 19:52 | 44.38862 | 8.95748 | 1489 ft | 155 kts | 289° |
| 2026-04-20 19:52 | 44.39188 | 8.94300 | 1173 ft | 156 kts | 283° |
| 2026-04-20 19:52 | 44.39475 | 8.92842 | 940 ft | 156 kts | 286° |
| 2026-04-20 19:52 | 44.39778 | 8.91398 | 701 ft | 154 kts | 285° |
| 2026-04-20 19:53 | 44.40054 | 8.89975 | 522 ft | 155 kts | 284° |
| 2026-04-20 19:53 | 44.40354 | 8.88527 | 408 ft | 155 kts | 283° |
| 2026-04-20 19:53 | 44.40623 | 8.87064 | 241 ft | 156 kts | 284° |
| 2026-04-20 19:53 | 44.40918 | 8.85599 | 45 ft | 156 kts | 284° |
| 2026-04-20 19:54 | 44.41179 | 8.84260 | 23 ft | 124 kts | 284° |
| 2026-04-20 19:54 | 44.41356 | 8.83362 | 23 ft | 60 kts | 285° |
| 2026-04-20 19:54 | 44.41469 | 8.83097 | 24 ft | 16 kts | 332° |
| 2026-04-20 19:54 | 44.41549 | 8.83162 | 27 ft | 16 kts | 89° |
| 2026-04-20 19:55 | 44.41526 | 8.83294 | 25 ft | 16 kts | 105° |